sensor_id;sensor_type;location;lat;lon;timestamp;temperature;humidity
69823;SHT31;57119;52.516;13.508;2023-04-24T00:02:14;10.16;99.99
69823;SHT31;57119;52.516;13.508;2023-04-24T00:04:40;10.17;99.99
69823;SHT31;57119;52.516;13.508;2023-04-24T00:07:06;10.10;99.99
69823;SHT31;57119;52.516;13.508;2023-04-24T00:09:33;10.12;99.99
69823;SHT31;57119;52.516;13.508;2023-04-24T00:11:58;10.10;99.99
69823;SHT31;57119;52.516;13.508;2023-04-24T00:14:24;10.09;99.99
69823;SHT31;57119;52.516;13.508;2023-04-24T00:16:49;10.10;99.99
69823;SHT31;57119;52.516;13.508;2023-04-24T00:19:15;10.12;99.99
69823;SHT31;57119;52.516;13.508;2023-04-24T00:21:41;10.10;99.99
69823;SHT31;57119;52.516;13.508;2023-04-24T00:24:07;10.08;99.99
69823;SHT31;57119;52.516;13.508;2023-04-24T00:26:34;10.05;99.99
69823;SHT31;57119;52.516;13.508;2023-04-24T00:28:59;10.01;99.99
69823;SHT31;57119;52.516;13.508;2023-04-24T00:31:25;9.99;99.99
69823;SHT31;57119;52.516;13.508;2023-04-24T00:33:50;9.89;99.99
69823;SHT31;57119;52.516;13.508;2023-04-24T00:36:15;9.89;99.99
69823;SHT31;57119;52.516;13.508;2023-04-24T00:38:41;9.86;99.99
69823;SHT31;57119;52.516;13.508;2023-04-24T00:41:06;9.86;99.99
69823;SHT31;57119;52.516;13.508;2023-04-24T00:43:32;9.85;99.99
69823;SHT31;57119;52.516;13.508;2023-04-24T00:45:58;9.84;99.99
69823;SHT31;57119;52.516;13.508;2023-04-24T00:48:24;9.82;99.99
69823;SHT31;57119;52.516;13.508;2023-04-24T00:50:50;9.78;99.99
69823;SHT31;57119;52.516;13.508;2023-04-24T00:53:15;9.88;99.99
69823;SHT31;57119;52.516;13.508;2023-04-24T00:55:41;10.06;99.99
69823;SHT31;57119;52.516;13.508;2023-04-24T00:58:06;10.05;99.99
69823;SHT31;57119;52.516;13.508;2023-04-24T01:00:31;9.96;99.99
69823;SHT31;57119;52.516;13.508;2023-04-24T01:02:59;10.05;99.99
69823;SHT31;57119;52.516;13.508;2023-04-24T01:05:25;10.12;99.99
69823;SHT31;57119;52.516;13.508;2023-04-24T01:07:51;10.03;99.99
69823;SHT31;57119;52.516;13.508;2023-04-24T01:10:16;10.12;99.99
69823;SHT31;57119;52.516;13.508;2023-04-24T01:12:42;10.08;99.99
69823;SHT31;57119;52.516;13.508;2023-04-24T01:15:09;10.06;99.99
69823;SHT31;57119;52.516;13.508;2023-04-24T01:17:34;10.20;99.99
69823;SHT31;57119;52.516;13.508;2023-04-24T01:20:00;10.37;99.99
69823;SHT31;57119;52.516;13.508;2023-04-24T01:22:26;10.32;99.99
69823;SHT31;57119;52.516;13.508;2023-04-24T01:24:52;10.35;99.99
69823;SHT31;57119;52.516;13.508;2023-04-24T01:27:18;10.35;99.99
69823;SHT31;57119;52.516;13.508;2023-04-24T01:29:44;10.36;99.99
69823;SHT31;57119;52.516;13.508;2023-04-24T01:32:10;10.29;99.99
69823;SHT31;57119;52.516;13.508;2023-04-24T01:34:37;10.23;99.99
69823;SHT31;57119;52.516;13.508;2023-04-24T01:37:02;10.22;99.99
69823;SHT31;57119;52.516;13.508;2023-04-24T01:39:27;10.20;99.99
69823;SHT31;57119;52.516;13.508;2023-04-24T01:41:54;10.15;99.99
69823;SHT31;57119;52.516;13.508;2023-04-24T01:44:20;10.16;99.99
69823;SHT31;57119;52.516;13.508;2023-04-24T01:46:46;10.22;99.99
69823;SHT31;57119;52.516;13.508;2023-04-24T01:49:11;10.10;99.99
69823;SHT31;57119;52.516;13.508;2023-04-24T01:51:36;10.15;99.99
69823;SHT31;57119;52.516;13.508;2023-04-24T01:54:02;10.09;99.99
69823;SHT31;57119;52.516;13.508;2023-04-24T01:56:33;10.06;99.99
69823;SHT31;57119;52.516;13.508;2023-04-24T01:58:59;9.99;99.99
69823;SHT31;57119;52.516;13.508;2023-04-24T02:01:26;9.92;99.99
69823;SHT31;57119;52.516;13.508;2023-04-24T02:03:51;9.92;99.99
69823;SHT31;57119;52.516;13.508;2023-04-24T02:06:16;9.92;99.99
69823;SHT31;57119;52.516;13.508;2023-04-24T02:08:42;9.86;99.99
69823;SHT31;57119;52.516;13.508;2023-04-24T02:11:10;9.91;99.99
69823;SHT31;57119;52.516;13.508;2023-04-24T02:13:36;9.92;99.99
69823;SHT31;57119;52.516;13.508;2023-04-24T02:16:01;10.02;99.99
69823;SHT31;57119;52.516;13.508;2023-04-24T02:18:27;10.10;99.99
69823;SHT31;57119;52.516;13.508;2023-04-24T02:20:52;10.12;99.99
69823;SHT31;57119;52.516;13.508;2023-04-24T02:23:18;10.09;99.99
69823;SHT31;57119;52.516;13.508;2023-04-24T02:25:43;10.15;99.99
69823;SHT31;57119;52.516;13.508;2023-04-24T02:28:08;10.10;99.99
69823;SHT31;57119;52.516;13.508;2023-04-24T02:30:34;10.03;99.99
69823;SHT31;57119;52.516;13.508;2023-04-24T02:32:59;10.12;99.99
69823;SHT31;57119;52.516;13.508;2023-04-24T02:35:25;10.09;99.99
69823;SHT31;57119;52.516;13.508;2023-04-24T02:37:50;10.12;99.99
69823;SHT31;57119;52.516;13.508;2023-04-24T02:40:15;10.16;99.99
69823;SHT31;57119;52.516;13.508;2023-04-24T02:42:41;10.17;99.99
69823;SHT31;57119;52.516;13.508;2023-04-24T02:45:06;10.12;99.99
69823;SHT31;57119;52.516;13.508;2023-04-24T02:47:32;10.13;99.99
69823;SHT31;57119;52.516;13.508;2023-04-24T02:49:57;10.13;99.99
69823;SHT31;57119;52.516;13.508;2023-04-24T02:52:23;10.13;99.99
69823;SHT31;57119;52.516;13.508;2023-04-24T02:54:48;10.06;99.99
69823;SHT31;57119;52.516;13.508;2023-04-24T02:57:14;10.08;99.99
69823;SHT31;57119;52.516;13.508;2023-04-24T02:59:40;10.12;99.99
69823;SHT31;57119;52.516;13.508;2023-04-24T03:02:05;10.16;99.99
69823;SHT31;57119;52.516;13.508;2023-04-24T03:04:30;10.16;99.99
69823;SHT31;57119;52.516;13.508;2023-04-24T03:06:57;10.17;99.99
69823;SHT31;57119;52.516;13.508;2023-04-24T03:09:22;10.19;99.99
69823;SHT31;57119;52.516;13.508;2023-04-24T03:11:48;10.22;99.99
69823;SHT31;57119;52.516;13.508;2023-04-24T03:14:14;10.25;99.99
69823;SHT31;57119;52.516;13.508;2023-04-24T03:16:40;10.26;99.99
69823;SHT31;57119;52.516;13.508;2023-04-24T03:19:05;10.30;99.99
69823;SHT31;57119;52.516;13.508;2023-04-24T03:21:31;10.43;99.99
69823;SHT31;57119;52.516;13.508;2023-04-24T03:23:56;10.52;99.99
69823;SHT31;57119;52.516;13.508;2023-04-24T03:26:21;10.56;99.99
69823;SHT31;57119;52.516;13.508;2023-04-24T03:28:47;10.59;99.99
69823;SHT31;57119;52.516;13.508;2023-04-24T03:31:12;10.64;99.99
69823;SHT31;57119;52.516;13.508;2023-04-24T03:33:37;10.67;99.99
69823;SHT31;57119;52.516;13.508;2023-04-24T03:36:03;10.70;99.99
69823;SHT31;57119;52.516;13.508;2023-04-24T03:38:30;10.74;99.99
69823;SHT31;57119;52.516;13.508;2023-04-24T03:40:55;10.74;99.99
69823;SHT31;57119;52.516;13.508;2023-04-24T03:43:21;10.77;99.99
69823;SHT31;57119;52.516;13.508;2023-04-24T03:45:46;10.77;99.99
69823;SHT31;57119;52.516;13.508;2023-04-24T03:48:11;10.85;99.99
69823;SHT31;57119;52.516;13.508;2023-04-24T03:50:37;10.85;99.99
69823;SHT31;57119;52.516;13.508;2023-04-24T03:53:02;10.92;99.99
69823;SHT31;57119;52.516;13.508;2023-04-24T03:55:28;10.98;99.99
69823;SHT31;57119;52.516;13.508;2023-04-24T03:57:54;11.05;99.99
69823;SHT31;57119;52.516;13.508;2023-04-24T04:00:19;11.08;99.99
69823;SHT31;57119;52.516;13.508;2023-04-24T04:02:46;11.15;99.99
69823;SHT31;57119;52.516;13.508;2023-04-24T04:05:11;11.11;99.99
69823;SHT31;57119;52.516;13.508;2023-04-24T04:07:36;11.02;99.99
69823;SHT31;57119;52.516;13.508;2023-04-24T04:10:02;11.02;99.99
69823;SHT31;57119;52.516;13.508;2023-04-24T04:12:28;11.02;99.99
69823;SHT31;57119;52.516;13.508;2023-04-24T04:14:53;11.11;99.99
69823;SHT31;57119;52.516;13.508;2023-04-24T04:17:19;11.12;99.99
69823;SHT31;57119;52.516;13.508;2023-04-24T04:19:44;11.14;99.99
69823;SHT31;57119;52.516;13.508;2023-04-24T04:22:10;11.28;99.99
69823;SHT31;57119;52.516;13.508;2023-04-24T04:24:35;11.33;99.99
69823;SHT31;57119;52.516;13.508;2023-04-24T04:27:03;11.25;99.99
69823;SHT31;57119;52.516;13.508;2023-04-24T04:29:30;11.43;99.99
69823;SHT31;57119;52.516;13.508;2023-04-24T04:31:57;11.49;99.99
69823;SHT31;57119;52.516;13.508;2023-04-24T04:34:22;11.50;99.99
69823;SHT31;57119;52.516;13.508;2023-04-24T04:36:48;11.60;99.99
69823;SHT31;57119;52.516;13.508;2023-04-24T04:39:13;11.66;99.99
69823;SHT31;57119;52.516;13.508;2023-04-24T04:41:40;11.70;99.99
69823;SHT31;57119;52.516;13.508;2023-04-24T04:44:06;11.73;99.85
69823;SHT31;57119;52.516;13.508;2023-04-24T04:46:34;11.76;99.76
69823;SHT31;57119;52.516;13.508;2023-04-24T04:49:00;11.84;99.49
69823;SHT31;57119;52.516;13.508;2023-04-24T04:51:26;11.93;99.19
69823;SHT31;57119;52.516;13.508;2023-04-24T04:53:52;11.94;98.92
69823;SHT31;57119;52.516;13.508;2023-04-24T04:56:18;12.08;98.38
69823;SHT31;57119;52.516;13.508;2023-04-24T04:58:43;12.13;98.13
69823;SHT31;57119;52.516;13.508;2023-04-24T05:01:08;12.14;98.04
69823;SHT31;57119;52.516;13.508;2023-04-24T05:03:34;12.16;97.99
69823;SHT31;57119;52.516;13.508;2023-04-24T05:06:01;12.10;97.90
69823;SHT31;57119;52.516;13.508;2023-04-24T05:08:27;12.18;97.61
69823;SHT31;57119;52.516;13.508;2023-04-24T05:10:52;12.18;97.48
69823;SHT31;57119;52.516;13.508;2023-04-24T05:13:18;12.18;97.42
69823;SHT31;57119;52.516;13.508;2023-04-24T05:15:43;12.22;97.24
69823;SHT31;57119;52.516;13.508;2023-04-24T05:18:09;12.18;97.38
69823;SHT31;57119;52.516;13.508;2023-04-24T05:20:34;12.20;97.15
69823;SHT31;57119;52.516;13.508;2023-04-24T05:23:00;12.25;97.06
69823;SHT31;57119;52.516;13.508;2023-04-24T05:25:25;12.25;97.18
69823;SHT31;57119;52.516;13.508;2023-04-24T05:27:51;12.27;96.78
69823;SHT31;57119;52.516;13.508;2023-04-24T05:30:16;12.25;96.93
69823;SHT31;57119;52.516;13.508;2023-04-24T05:32:41;12.38;96.42
69823;SHT31;57119;52.516;13.508;2023-04-24T05:35:07;12.45;96.18
69823;SHT31;57119;52.516;13.508;2023-04-24T05:37:33;12.50;95.88
69823;SHT31;57119;52.516;13.508;2023-04-24T05:39:58;12.58;95.55
69823;SHT31;57119;52.516;13.508;2023-04-24T05:42:23;12.53;95.47
69823;SHT31;57119;52.516;13.508;2023-04-24T05:44:50;12.60;95.32
69823;SHT31;57119;52.516;13.508;2023-04-24T05:47:15;12.72;94.91
69823;SHT31;57119;52.516;13.508;2023-04-24T05:49:41;12.79;94.30
69823;SHT31;57119;52.516;13.508;2023-04-24T05:52:06;12.86;94.44
69823;SHT31;57119;52.516;13.508;2023-04-24T05:54:34;12.94;93.49
69823;SHT31;57119;52.516;13.508;2023-04-24T05:56:59;13.00;93.37
69823;SHT31;57119;52.516;13.508;2023-04-24T05:59:26;12.97;92.93
69823;SHT31;57119;52.516;13.508;2023-04-24T06:01:51;12.92;92.98
69823;SHT31;57119;52.516;13.508;2023-04-24T06:04:17;13.10;93.02
69823;SHT31;57119;52.516;13.508;2023-04-24T06:06:42;13.20;92.33
69823;SHT31;57119;52.516;13.508;2023-04-24T06:09:08;13.27;92.06
69823;SHT31;57119;52.516;13.508;2023-04-24T06:11:33;13.33;91.77
69823;SHT31;57119;52.516;13.508;2023-04-24T06:13:59;13.34;91.20
69823;SHT31;57119;52.516;13.508;2023-04-24T06:16:25;13.37;91.28
69823;SHT31;57119;52.516;13.508;2023-04-24T06:18:50;13.65;90.46
69823;SHT31;57119;52.516;13.508;2023-04-24T06:21:16;13.81;89.87
69823;SHT31;57119;52.516;13.508;2023-04-24T06:23:41;13.87;89.26
69823;SHT31;57119;52.516;13.508;2023-04-24T06:26:07;13.93;88.69
69823;SHT31;57119;52.516;13.508;2023-04-24T06:28:33;14.23;87.86
69823;SHT31;57119;52.516;13.508;2023-04-24T06:30:58;14.31;87.57
69823;SHT31;57119;52.516;13.508;2023-04-24T06:33:24;14.14;87.23
69823;SHT31;57119;52.516;13.508;2023-04-24T06:35:49;14.03;87.68
69823;SHT31;57119;52.516;13.508;2023-04-24T06:38:14;14.06;87.30
69823;SHT31;57119;52.516;13.508;2023-04-24T06:40:41;14.08;87.23
69823;SHT31;57119;52.516;13.508;2023-04-24T06:43:06;14.38;86.45
69823;SHT31;57119;52.516;13.508;2023-04-24T06:45:32;15.02;85.07
69823;SHT31;57119;52.516;13.508;2023-04-24T06:47:57;15.36;83.64
69823;SHT31;57119;52.516;13.508;2023-04-24T06:50:23;15.54;82.80
69823;SHT31;57119;52.516;13.508;2023-04-24T06:52:49;15.92;81.82
69823;SHT31;57119;52.516;13.508;2023-04-24T06:55:15;16.30;80.10
69823;SHT31;57119;52.516;13.508;2023-04-24T06:57:41;15.97;80.58
69823;SHT31;57119;52.516;13.508;2023-04-24T07:00:07;16.06;79.77
69823;SHT31;57119;52.516;13.508;2023-04-24T07:02:34;16.38;79.29
69823;SHT31;57119;52.516;13.508;2023-04-24T07:05:00;16.71;78.11
69823;SHT31;57119;52.516;13.508;2023-04-24T07:07:29;17.07;77.62
69823;SHT31;57119;52.516;13.508;2023-04-24T07:09:54;17.45;76.37
69823;SHT31;57119;52.516;13.508;2023-04-24T07:12:21;17.00;77.16
69823;SHT31;57119;52.516;13.508;2023-04-24T07:14:47;17.07;75.73
69823;SHT31;57119;52.516;13.508;2023-04-24T07:17:14;16.90;75.97
69823;SHT31;57119;52.516;13.508;2023-04-24T07:19:40;17.25;75.22
69823;SHT31;57119;52.516;13.508;2023-04-24T07:22:05;17.76;74.17
69823;SHT31;57119;52.516;13.508;2023-04-24T07:24:31;17.97;72.87
69823;SHT31;57119;52.516;13.508;2023-04-24T07:26:59;18.31;71.52
69823;SHT31;57119;52.516;13.508;2023-04-24T07:29:26;18.00;71.71
69823;SHT31;57119;52.516;13.508;2023-04-24T07:31:52;18.75;70.40
69823;SHT31;57119;52.516;13.508;2023-04-24T07:34:19;18.72;69.73
69823;SHT31;57119;52.516;13.508;2023-04-24T07:36:45;18.49;69.99
69823;SHT31;57119;52.516;13.508;2023-04-24T07:39:11;17.73;71.42
69823;SHT31;57119;52.516;13.508;2023-04-24T07:41:36;17.24;72.46
69823;SHT31;57119;52.516;13.508;2023-04-24T07:44:01;17.42;72.58
69823;SHT31;57119;52.516;13.508;2023-04-24T07:46:27;17.32;71.94
69823;SHT31;57119;52.516;13.508;2023-04-24T07:48:55;17.15;71.29
69823;SHT31;57119;52.516;13.508;2023-04-24T07:51:20;17.66;70.26
69823;SHT31;57119;52.516;13.508;2023-04-24T07:53:45;18.45;68.41
69823;SHT31;57119;52.516;13.508;2023-04-24T07:56:11;19.35;65.31
69823;SHT31;57119;52.516;13.508;2023-04-24T07:58:36;19.98;64.04
69823;SHT31;57119;52.516;13.508;2023-04-24T08:01:02;19.69;63.55
69823;SHT31;57119;52.516;13.508;2023-04-24T08:03:27;19.64;64.27
69823;SHT31;57119;52.516;13.508;2023-04-24T08:05:53;19.37;64.79
69823;SHT31;57119;52.516;13.508;2023-04-24T08:08:21;19.35;64.45
69823;SHT31;57119;52.516;13.508;2023-04-24T08:10:47;19.82;62.80
69823;SHT31;57119;52.516;13.508;2023-04-24T08:13:12;19.38;62.76
69823;SHT31;57119;52.516;13.508;2023-04-24T08:15:38;19.24;63.65
69823;SHT31;57119;52.516;13.508;2023-04-24T08:18:03;19.19;64.88
69823;SHT31;57119;52.516;13.508;2023-04-24T08:20:29;18.91;64.70
69823;SHT31;57119;52.516;13.508;2023-04-24T08:22:54;18.76;63.98
69823;SHT31;57119;52.516;13.508;2023-04-24T08:25:20;17.85;66.33
69823;SHT31;57119;52.516;13.508;2023-04-24T08:27:45;18.28;66.88
69823;SHT31;57119;52.516;13.508;2023-04-24T08:30:11;19.62;65.57
69823;SHT31;57119;52.516;13.508;2023-04-24T08:32:37;20.67;63.75
69823;SHT31;57119;52.516;13.508;2023-04-24T08:35:02;20.23;64.07
69823;SHT31;57119;52.516;13.508;2023-04-24T08:37:28;19.92;65.15
69823;SHT31;57119;52.516;13.508;2023-04-24T08:39:54;20.34;64.11
69823;SHT31;57119;52.516;13.508;2023-04-24T08:42:20;20.88;63.39
69823;SHT31;57119;52.516;13.508;2023-04-24T08:44:48;20.56;63.39
69823;SHT31;57119;52.516;13.508;2023-04-24T08:47:14;20.09;64.22
69823;SHT31;57119;52.516;13.508;2023-04-24T08:49:40;20.85;62.93
69823;SHT31;57119;52.516;13.508;2023-04-24T08:52:07;20.53;62.03
69823;SHT31;57119;52.516;13.508;2023-04-24T08:54:36;22.08;61.35
69823;SHT31;57119;52.516;13.508;2023-04-24T08:57:02;22.05;60.47
69823;SHT31;57119;52.516;13.508;2023-04-24T08:59:29;21.97;60.02
69823;SHT31;57119;52.516;13.508;2023-04-24T09:01:55;21.32;60.21
69823;SHT31;57119;52.516;13.508;2023-04-24T09:04:21;21.50;60.45
69823;SHT31;57119;52.516;13.508;2023-04-24T09:06:57;20.33;61.34
69823;SHT31;57119;52.516;13.508;2023-04-24T09:09:24;20.44;61.48
69823;SHT31;57119;52.516;13.508;2023-04-24T09:11:51;20.77;60.56
69823;SHT31;57119;52.516;13.508;2023-04-24T09:14:19;21.32;59.70
69823;SHT31;57119;52.516;13.508;2023-04-24T09:16:45;20.70;59.29
69823;SHT31;57119;52.516;13.508;2023-04-24T09:19:10;20.30;60.88
69823;SHT31;57119;52.516;13.508;2023-04-24T09:21:36;19.71;62.19
69823;SHT31;57119;52.516;13.508;2023-04-24T09:24:05;19.23;63.38
69823;SHT31;57119;52.516;13.508;2023-04-24T09:26:32;18.83;64.63
69823;SHT31;57119;52.516;13.508;2023-04-24T09:28:58;18.15;65.80
69823;SHT31;57119;52.516;13.508;2023-04-24T09:31:26;18.23;65.97
69823;SHT31;57119;52.516;13.508;2023-04-24T09:36:28;18.07;65.97
69823;SHT31;57119;52.516;13.508;2023-04-24T09:38:59;17.77;66.51
69823;SHT31;57119;52.516;13.508;2023-04-24T09:41:25;17.31;68.75
69823;SHT31;57119;52.516;13.508;2023-04-24T09:43:53;17.24;68.87
69823;SHT31;57119;52.516;13.508;2023-04-24T09:46:19;17.11;70.24
69823;SHT31;57119;52.516;13.508;2023-04-24T09:48:44;16.91;71.05
69823;SHT31;57119;52.516;13.508;2023-04-24T09:51:10;16.80;71.61
69823;SHT31;57119;52.516;13.508;2023-04-24T09:53:37;16.77;72.28
69823;SHT31;57119;52.516;13.508;2023-04-24T09:56:08;16.56;72.27
69823;SHT31;57119;52.516;13.508;2023-04-24T09:58:36;16.77;72.04
69823;SHT31;57119;52.516;13.508;2023-04-24T10:01:02;16.95;72.17
69823;SHT31;57119;52.516;13.508;2023-04-24T10:03:30;17.58;70.80
69823;SHT31;57119;52.516;13.508;2023-04-24T10:06:03;17.43;70.54
69823;SHT31;57119;52.516;13.508;2023-04-24T10:08:35;17.73;70.21
69823;SHT31;57119;52.516;13.508;2023-04-24T10:11:01;18.37;69.17
69823;SHT31;57119;52.516;13.508;2023-04-24T10:13:27;18.58;68.63
69823;SHT31;57119;52.516;13.508;2023-04-24T10:15:53;18.96;67.42
69823;SHT31;57119;52.516;13.508;2023-04-24T10:18:20;18.37;67.20
69823;SHT31;57119;52.516;13.508;2023-04-24T10:20:46;18.44;67.38
69823;SHT31;57119;52.516;13.508;2023-04-24T10:23:12;18.72;66.99
69823;SHT31;57119;52.516;13.508;2023-04-24T10:25:37;18.55;67.11
69823;SHT31;57119;52.516;13.508;2023-04-24T10:28:03;18.51;67.49
69823;SHT31;57119;52.516;13.508;2023-04-24T10:30:31;18.43;67.91
69823;SHT31;57119;52.516;13.508;2023-04-24T10:33:01;18.13;67.60
69823;SHT31;57119;52.516;13.508;2023-04-24T10:35:30;18.45;67.41
69823;SHT31;57119;52.516;13.508;2023-04-24T10:37:59;18.49;67.17
69823;SHT31;57119;52.516;13.508;2023-04-24T10:40:30;18.25;67.93
69823;SHT31;57119;52.516;13.508;2023-04-24T10:42:56;18.59;65.50
69823;SHT31;57119;52.516;13.508;2023-04-24T10:45:23;18.14;65.76
69823;SHT31;57119;52.516;13.508;2023-04-24T10:47:58;18.13;65.76
69823;SHT31;57119;52.516;13.508;2023-04-24T10:50:30;17.80;66.82
69823;SHT31;57119;52.516;13.508;2023-04-24T10:53:07;17.94;67.34
69823;SHT31;57119;52.516;13.508;2023-04-24T10:56:06;17.89;67.39
69823;SHT31;57119;52.516;13.508;2023-04-24T10:58:43;17.69;67.96
69823;SHT31;57119;52.516;13.508;2023-04-24T11:01:32;17.76;67.89
69823;SHT31;57119;52.516;13.508;2023-04-24T11:04:02;17.67;67.92
69823;SHT31;57119;52.516;13.508;2023-04-24T11:06:31;17.69;68.40
69823;SHT31;57119;52.516;13.508;2023-04-24T11:09:05;17.46;68.79
69823;SHT31;57119;52.516;13.508;2023-04-24T11:11:33;18.04;68.22
69823;SHT31;57119;52.516;13.508;2023-04-24T11:16:27;19.07;66.45
69823;SHT31;57119;52.516;13.508;2023-04-24T11:21:41;22.15;60.20
69823;SHT31;57119;52.516;13.508;2023-04-24T11:32:41;19.48;64.59
69823;SHT31;57119;52.516;13.508;2023-04-24T11:35:21;19.04;65.51
69823;SHT31;57119;52.516;13.508;2023-04-24T11:37:51;17.80;68.01
69823;SHT31;57119;52.516;13.508;2023-04-24T11:40:18;17.62;69.96
69823;SHT31;57119;52.516;13.508;2023-04-24T11:42:51;16.71;76.04
69823;SHT31;57119;52.516;13.508;2023-04-24T11:45:22;15.39;84.46
69823;SHT31;57119;52.516;13.508;2023-04-24T11:47:48;14.33;88.26
69823;SHT31;57119;52.516;13.508;2023-04-24T11:50:15;14.23;87.67
69823;SHT31;57119;52.516;13.508;2023-04-24T11:52:43;14.34;87.76
69823;SHT31;57119;52.516;13.508;2023-04-24T11:57:43;16.73;84.97
69823;SHT31;57119;52.516;13.508;2023-04-24T12:00:25;17.89;80.53
69823;SHT31;57119;52.516;13.508;2023-04-24T12:02:51;18.79;78.27
69823;SHT31;57119;52.516;13.508;2023-04-24T12:05:24;19.78;72.52
69823;SHT31;57119;52.516;13.508;2023-04-24T12:07:51;20.47;72.38
69823;SHT31;57119;52.516;13.508;2023-04-24T12:10:24;21.19;70.73
69823;SHT31;57119;52.516;13.508;2023-04-24T12:12:51;22.89;66.40
69823;SHT31;57119;52.516;13.508;2023-04-24T12:15:17;23.30;62.75
69823;SHT31;57119;52.516;13.508;2023-04-24T12:17:44;23.61;62.93
69823;SHT31;57119;52.516;13.508;2023-04-24T12:20:10;23.81;61.35
69823;SHT31;57119;52.516;13.508;2023-04-24T12:22:52;23.34;61.86
69823;SHT31;57119;52.516;13.508;2023-04-24T12:25:22;24.23;61.29
69823;SHT31;57119;52.516;13.508;2023-04-24T12:28:08;24.63;60.43
69823;SHT31;57119;52.516;13.508;2023-04-24T12:30:44;23.35;61.26
69823;SHT31;57119;52.516;13.508;2023-04-24T12:33:20;23.62;61.49
69823;SHT31;57119;52.516;13.508;2023-04-24T12:35:45;24.99;60.38
69823;SHT31;57119;52.516;13.508;2023-04-24T12:38:12;24.87;57.18
69823;SHT31;57119;52.516;13.508;2023-04-24T12:40:39;21.29;59.72
69823;SHT31;57119;52.516;13.508;2023-04-24T12:43:15;20.22;61.67
69823;SHT31;57119;52.516;13.508;2023-04-24T12:45:40;19.71;62.33
69823;SHT31;57119;52.516;13.508;2023-04-24T12:48:06;19.61;64.37
69823;SHT31;57119;52.516;13.508;2023-04-24T12:50:31;19.78;62.86
69823;SHT31;57119;52.516;13.508;2023-04-24T12:52:57;19.30;63.37
69823;SHT31;57119;52.516;13.508;2023-04-24T12:55:22;19.41;62.23
69823;SHT31;57119;52.516;13.508;2023-04-24T12:57:47;18.98;58.75
69823;SHT31;57119;52.516;13.508;2023-04-24T13:00:14;18.88;57.55
69823;SHT31;57119;52.516;13.508;2023-04-24T13:02:39;19.09;55.03
69823;SHT31;57119;52.516;13.508;2023-04-24T13:05:05;20.71;53.81
69823;SHT31;57119;52.516;13.508;2023-04-24T13:07:31;20.20;53.10
69823;SHT31;57119;52.516;13.508;2023-04-24T13:09:56;20.95;52.78
69823;SHT31;57119;52.516;13.508;2023-04-24T13:12:22;22.62;48.73
69823;SHT31;57119;52.516;13.508;2023-04-24T13:14:49;22.11;50.68
69823;SHT31;57119;52.516;13.508;2023-04-24T13:17:14;21.14;51.24
69823;SHT31;57119;52.516;13.508;2023-04-24T13:19:41;19.99;51.73
69823;SHT31;57119;52.516;13.508;2023-04-24T13:22:11;20.00;52.16
69823;SHT31;57119;52.516;13.508;2023-04-24T13:24:38;21.05;51.02
69823;SHT31;57119;52.516;13.508;2023-04-24T13:27:05;21.53;50.17
69823;SHT31;57119;52.516;13.508;2023-04-24T13:29:30;22.55;48.15
69823;SHT31;57119;52.516;13.508;2023-04-24T13:31:56;22.32;47.45
69823;SHT31;57119;52.516;13.508;2023-04-24T13:34:24;23.08;46.04
69823;SHT31;57119;52.516;13.508;2023-04-24T13:36:52;24.63;45.32
69823;SHT31;57119;52.516;13.508;2023-04-24T13:39:17;22.22;48.77
69823;SHT31;57119;52.516;13.508;2023-04-24T13:41:43;22.39;48.32
69823;SHT31;57119;52.516;13.508;2023-04-24T13:44:08;21.62;47.03
69823;SHT31;57119;52.516;13.508;2023-04-24T13:46:34;21.49;47.98
69823;SHT31;57119;52.516;13.508;2023-04-24T13:49:00;21.53;48.30
69823;SHT31;57119;52.516;13.508;2023-04-24T13:51:26;21.32;46.81
69823;SHT31;57119;52.516;13.508;2023-04-24T13:53:54;22.02;45.12
69823;SHT31;57119;52.516;13.508;2023-04-24T13:56:20;22.35;45.40
69823;SHT31;57119;52.516;13.508;2023-04-24T13:58:46;22.76;44.68
69823;SHT31;57119;52.516;13.508;2023-04-24T14:01:12;23.76;43.97
69823;SHT31;57119;52.516;13.508;2023-04-24T14:03:38;21.70;47.11
69823;SHT31;57119;52.516;13.508;2023-04-24T14:06:03;21.38;47.90
69823;SHT31;57119;52.516;13.508;2023-04-24T14:08:29;21.87;47.45
69823;SHT31;57119;52.516;13.508;2023-04-24T14:10:54;22.15;46.45
69823;SHT31;57119;52.516;13.508;2023-04-24T14:13:20;22.70;46.32
69823;SHT31;57119;52.516;13.508;2023-04-24T14:15:46;22.52;46.44
69823;SHT31;57119;52.516;13.508;2023-04-24T14:18:11;23.17;45.77
69823;SHT31;57119;52.516;13.508;2023-04-24T14:20:36;23.30;45.70
69823;SHT31;57119;52.516;13.508;2023-04-24T14:23:03;22.39;46.62
69823;SHT31;57119;52.516;13.508;2023-04-24T14:25:29;21.63;47.59
69823;SHT31;57119;52.516;13.508;2023-04-24T14:27:55;22.31;46.28
69823;SHT31;57119;52.516;13.508;2023-04-24T14:30:20;20.00;48.92
69823;SHT31;57119;52.516;13.508;2023-04-24T14:32:45;19.50;50.50
69823;SHT31;57119;52.516;13.508;2023-04-24T14:35:11;18.81;51.34
69823;SHT31;57119;52.516;13.508;2023-04-24T14:37:36;18.58;52.39
69823;SHT31;57119;52.516;13.508;2023-04-24T14:40:03;18.66;52.60
69823;SHT31;57119;52.516;13.508;2023-04-24T14:42:30;21.57;48.53
69823;SHT31;57119;52.516;13.508;2023-04-24T14:44:55;22.17;46.91
69823;SHT31;57119;52.516;13.508;2023-04-24T14:47:21;21.33;46.66
69823;SHT31;57119;52.516;13.508;2023-04-24T14:49:47;19.60;48.93
69823;SHT31;57119;52.516;13.508;2023-04-24T14:52:13;18.76;50.43
69823;SHT31;57119;52.516;13.508;2023-04-24T14:54:38;18.35;52.03
69823;SHT31;57119;52.516;13.508;2023-04-24T14:57:04;19.09;52.66
69823;SHT31;57119;52.516;13.508;2023-04-24T14:59:29;20.04;51.07
69823;SHT31;57119;52.516;13.508;2023-04-24T15:01:56;20.80;49.10
69823;SHT31;57119;52.516;13.508;2023-04-24T15:04:28;19.62;51.35
69823;SHT31;57119;52.516;13.508;2023-04-24T15:06:55;19.77;50.49
69823;SHT31;57119;52.516;13.508;2023-04-24T15:09:21;19.19;51.41
69823;SHT31;57119;52.516;13.508;2023-04-24T15:11:47;18.93;52.52
69823;SHT31;57119;52.516;13.508;2023-04-24T15:14:12;18.52;52.76
69823;SHT31;57119;52.516;13.508;2023-04-24T15:16:38;17.86;53.94
69823;SHT31;57119;52.516;13.508;2023-04-24T15:19:03;17.77;54.72
69823;SHT31;57119;52.516;13.508;2023-04-24T15:21:29;17.43;54.92
69823;SHT31;57119;52.516;13.508;2023-04-24T15:23:54;17.56;55.28
69823;SHT31;57119;52.516;13.508;2023-04-24T15:26:20;17.36;55.66
69823;SHT31;57119;52.516;13.508;2023-04-24T15:28:45;17.52;56.18
69823;SHT31;57119;52.516;13.508;2023-04-24T15:31:13;17.73;54.99
69823;SHT31;57119;52.516;13.508;2023-04-24T15:33:39;19.62;52.31